Estación Meteorológica Peña el Pijo (Robertgarden) [ 01/30/23 14:22:40 CET ]

Fecha Hora Presion(HPa) Temp (°C) Humedad % Rocio (°C) Viento ( m/s) Direccion Lluvia 1Hora(mm) Lluvia 24H(mm) LLuvia Total(mm)
2010-Oct-02 01:01:12 1011.000 9.3 64 2.8         160.58
2010-Oct-02 02:01:15 1010.400 8.3 69 3.0         160.58
2010-Oct-02 03:03:19 1010.300 7.5 73 3.0         160.58
2010-Oct-02 04:01:14 1010.000 6.7 76 2.8         160.58
2010-Oct-02 05:01:17 1009.600 6.4 78 2.8         160.58
2010-Oct-02 06:01:15 1009.300 6.3 77 2.5         160.58
2010-Oct-02 07:01:16 1009.500 5.9 77 2.2         160.58
2010-Oct-02 08:01:16 1009.700 5.3 78 1.7         160.58
2010-Oct-02 09:01:12 1009.700 5.0 80 1.8         160.58
2010-Oct-02 10:01:14 1010.000 14.3 60 6.7         160.58
2010-Oct-02 11:01:17 1010.100 20.9 42 7.5         160.58
2010-Oct-02 12:01:16 1009.700 26.6 28 6.5         160.58
2010-Oct-02 13:01:14 1009.600 30.3 21 5.5         160.58
2010-Oct-02 14:01:13 1009.600 31.1 14 -0.2         160.58
2010-Oct-02 15:01:14 1009.100 30.3 15 0.1         160.58
2010-Oct-02 16:01:13 1008.800 29.4 15 -0.6 1.8 NW     160.58
2010-Oct-02 17:01:13 1008.700 28.4 17 0.5         160.58
2010-Oct-02 18:01:12 1008.800 25.9 22 2.4         160.58
2010-Oct-02 19:01:13 1009.100 23.3 26 2.5         160.58
2010-Oct-02 20:01:16 1009.400 20.2 32 2.9         160.58
2010-Oct-02 21:01:12 1009.700 16.3 42 3.3         160.58
2010-Oct-02 22:01:13 1009.800 13.6 52 3.9         160.58
2010-Oct-02 23:01:13 1009.900 12.0 58 4.0         160.58

Temperatura Máxima:31°    Temperatura Mínima:
Presión Máxima:1011.000 Hpa    Presión Mínima:1008.700 Hpa


Volver